Time;durP1;ratioP1;P1;durP2;ratioP2;P2;SDS_P1;SDS_P2;PMS_P1;PMS_P2;Temp;Humidity;BMP_temperature;BMP_pressure;BME280_temperature;BME280_humidity;BME280_pressure;Samples;Min_cycle;Max_cycle;Signal;HPM_P1;HPM_P2
2023/07/11 00:00:29;;;;;;;0.20;0.20;;;19.30;99.90;;;;;;5097467;28;20036;-72
2023/07/11 00:02:54;;;;;;;0.40;0.40;;;19.30;99.90;;;;;;5097545;28;20036;-72
2023/07/11 00:05:20;;;;;;;0.30;0.30;;;19.30;99.90;;;;;;5097446;28;20093;-72
2023/07/11 00:07:46;;;;;;;0.30;0.30;;;19.20;99.90;;;;;;5097022;28;20032;-72
2023/07/11 00:10:16;;;;;;;0.30;0.30;;;19.20;99.90;;;;;;5097253;28;20040;-72
2023/07/11 00:12:46;;;;;;;0.30;0.30;;;19.10;99.90;;;;;;5097201;28;20036;-72
2023/07/11 00:15:14;;;;;;;0.35;0.35;;;19.10;99.90;;;;;;5097142;28;20097;-72
2023/07/11 00:17:40;;;;;;;0.20;0.20;;;19.10;99.90;;;;;;5097040;28;20070;-72
2023/07/11 00:20:11;;;;;;;0.20;0.20;;;19.00;99.90;;;;;;5097097;28;20032;-72
2023/07/11 00:22:37;;;;;;;0.20;0.20;;;19.00;99.90;;;;;;5097001;28;20040;-72
2023/07/11 00:25:04;;;;;;;0.30;0.30;;;19.00;99.90;;;;;;5097130;28;20379;-72
2023/07/11 00:27:33;;;;;;;0.20;0.20;;;19.00;99.90;;;;;;5096824;28;20393;-72
2023/07/11 00:29:59;;;;;;;0.30;0.30;;;19.00;99.90;;;;;;5096866;28;20491;-72
2023/07/11 00:32:25;;;;;;;0.20;0.20;;;19.00;99.90;;;;;;5096890;28;20044;-72
2023/07/11 00:34:50;;;;;;;0.30;0.30;;;19.00;99.90;;;;;;5096582;28;20133;-72
2023/07/11 00:37:16;;;;;;;0.30;0.30;;;18.90;99.90;;;;;;5096723;28;20046;-72
2023/07/11 00:39:42;;;;;;;0.20;0.20;;;18.80;99.90;;;;;;5096256;28;20502;-72
2023/07/11 00:42:09;;;;;;;0.30;0.30;;;18.80;99.90;;;;;;5096573;28;20040;-72
2023/07/11 00:44:55;;;;;;;0.20;0.20;;;18.80;99.90;;;;;;5097118;28;20313;-72
2023/07/11 00:47:23;;;;;;;0.30;0.30;;;18.70;99.90;;;;;;5096718;28;20040;-72
2023/07/11 00:49:52;;;;;;;0.20;0.20;;;18.70;99.90;;;;;;5096503;28;20078;-72
2023/07/11 00:52:19;;;;;;;0.20;0.20;;;18.70;99.90;;;;;;5096429;28;20036;-72
2023/07/11 00:54:51;;;;;;;0.20;0.20;;;18.70;99.90;;;;;;5096398;28;20126;-72
2023/07/11 00:57:18;;;;;;;0.30;0.30;;;18.70;99.90;;;;;;5096685;28;20075;-72
2023/07/11 00:59:44;;;;;;;0.20;0.20;;;18.70;99.90;;;;;;5096246;28;20368;-72
2023/07/11 01:02:15;;;;;;;0.30;0.30;;;18.70;99.90;;;;;;5095607;28;20039;-72
2023/07/11 01:04:41;;;;;;;0.43;0.30;;;18.70;99.90;;;;;;5096299;28;20048;-72
2023/07/11 01:07:09;;;;;;;0.33;0.33;;;18.60;99.90;;;;;;5095799;28;20089;-72
2023/07/11 01:09:35;;;;;;;0.50;0.50;;;18.60;99.90;;;;;;5096338;28;20079;-72
2023/07/11 01:12:07;;;;;;;0.40;0.40;;;18.50;99.90;;;;;;5096454;28;20075;-72
2023/07/11 01:14:34;;;;;;;0.30;0.30;;;18.50;99.90;;;;;;5096442;28;20079;-72
2023/07/11 01:17:19;;;;;;;0.30;0.30;;;18.50;99.90;;;;;;5096085;28;20093;-72
2023/07/11 01:19:45;;;;;;;0.20;0.20;;;18.50;99.90;;;;;;5095876;28;20044;-72
2023/07/11 01:22:10;;;;;;;0.30;0.30;;;18.40;99.90;;;;;;5095667;28;20128;-72
2023/07/11 01:24:36;;;;;;;0.20;0.20;;;18.40;99.90;;;;;;5094427;28;20039;-73
2023/07/11 01:27:01;;;;;;;0.53;0.53;;;18.40;99.90;;;;;;5095911;28;20441;-73
2023/07/11 01:29:28;;;;;;;0.20;0.20;;;18.30;99.90;;;;;;5095964;28;20475;-72
2023/07/11 01:31:53;;;;;;;0.30;0.30;;;18.30;99.90;;;;;;5095758;28;20071;-72
2023/07/11 01:34:19;;;;;;;0.30;0.30;;;18.30;99.90;;;;;;5094435;28;20047;-72
2023/07/11 01:36:44;;;;;;;0.30;0.30;;;18.20;99.90;;;;;;5095230;28;20363;-72
2023/07/11 01:39:10;;;;;;;0.50;0.40;;;18.20;99.90;;;;;;5095217;28;20104;-72
2023/07/11 01:41:36;;;;;;;0.30;0.30;;;18.20;99.90;;;;;;5095559;28;20040;-72
2023/07/11 01:44:02;;;;;;;0.30;0.30;;;18.20;99.90;;;;;;5095509;28;20406;-72
2023/07/11 01:46:28;;;;;;;;;;;18.20;99.90;;;;;;5096338;28;20096;-72
2023/07/11 01:48:54;;;;;;;0.60;0.60;;;18.20;99.90;;;;;;5095309;28;19916;-72
2023/07/11 01:51:19;;;;;;;0.30;0.30;;;18.10;99.90;;;;;;5095290;28;20040;-72
2023/07/11 01:53:45;;;;;;;0.60;0.60;;;18.10;99.90;;;;;;5095465;28;20042;-72
2023/07/11 01:56:10;;;;;;;0.20;0.20;;;18.10;99.90;;;;;;5095182;28;20059;-72
2023/07/11 01:58:38;;;;;;;0.30;0.30;;;18.10;99.90;;;;;;5095172;28;20035;-72
2023/07/11 02:01:04;;;;;;;0.57;0.40;;;18.10;99.90;;;;;;5095101;28;20044;-72
2023/07/11 02:03:29;;;;;;;0.30;0.30;;;18.10;99.90;;;;;;5095019;28;20043;-72
2023/07/11 02:05:55;;;;;;;0.87;0.40;;;18.10;99.90;;;;;;5095073;28;20044;-72
2023/07/11 02:08:24;;;;;;;0.77;0.50;;;18.00;99.90;;;;;;5094957;28;20123;-72
2023/07/11 02:10:49;;;;;;;0.30;0.30;;;18.00;99.90;;;;;;5095053;28;20170;-72
2023/07/11 02:13:15;;;;;;;0.30;0.30;;;18.00;99.90;;;;;;5094899;28;20122;-72
2023/07/11 02:15:41;;;;;;;0.40;0.40;;;18.00;99.90;;;;;;5094992;28;20367;-72
2023/07/11 02:18:06;;;;;;;0.20;0.20;;;18.00;99.90;;;;;;5094978;28;20046;-72
2023/07/11 02:20:32;;;;;;;0.30;0.30;;;18.00;99.90;;;;;;5094757;28;20075;-72
2023/07/11 02:22:59;;;;;;;0.30;0.30;;;17.90;99.90;;;;;;5094719;28;20036;-72
2023/07/11 02:25:28;;;;;;;0.30;0.30;;;17.90;99.90;;;;;;5094342;28;20036;-72
2023/07/11 02:27:54;;;;;;;0.28;0.28;;;17.90;99.90;;;;;;5094783;28;20032;-72
2023/07/11 02:30:20;;;;;;;0.30;0.30;;;17.90;99.90;;;;;;5094563;28;20433;-72
2023/07/11 02:32:45;;;;;;;0.50;0.50;;;17.80;99.90;;;;;;5094416;28;20125;-72
2023/07/11 02:35:11;;;;;;;0.37;0.37;;;17.80;99.90;;;;;;5094477;28;20044;-72
2023/07/11 02:37:36;;;;;;;0.30;0.30;;;17.80;99.90;;;;;;5094358;28;20051;-72
2023/07/11 02:40:02;;;;;;;0.30;0.30;;;17.80;99.90;;;;;;5094421;28;20047;-71
2023/07/11 02:42:28;;;;;;;0.30;0.30;;;17.80;99.90;;;;;;5094515;28;20043;-72
2023/07/11 02:44:53;;;;;;;0.30;0.30;;;17.90;99.90;;;;;;5094347;28;20046;-71
2023/07/11 02:47:19;;;;;;;0.40;0.40;;;17.90;99.90;;;;;;5094200;28;20028;-71
2023/07/11 02:49:45;;;;;;;0.30;0.30;;;17.90;99.90;;;;;;5094127;28;20036;-71
2023/07/11 02:52:13;;;;;;;0.30;0.30;;;17.90;99.90;;;;;;5094825;28;20062;-71
2023/07/11 02:54:39;;;;;;;0.30;0.30;;;17.90;99.90;;;;;;5094243;28;20040;-72
2023/07/11 02:57:11;;;;;;;0.37;0.37;;;17.90;99.90;;;;;;5094126;28;20042;-71
2023/07/11 02:59:37;;;;;;;0.30;0.30;;;17.90;99.90;;;;;;5093639;28;20543;-71
2023/07/11 03:02:03;;;;;;;0.38;0.38;;;17.90;99.90;;;;;;5094013;28;20051;-71
2023/07/11 03:04:30;;;;;;;0.95;0.93;;;17.90;99.90;;;;;;5092954;28;20036;-71
2023/07/11 03:06:56;;;;;;;0.30;0.30;;;17.90;99.90;;;;;;5094411;28;20044;-71
2023/07/11 03:09:22;;;;;;;0.30;0.30;;;17.90;99.90;;;;;;5093931;28;20499;-71
2023/07/11 03:11:48;;;;;;;0.30;0.30;;;17.90;99.90;;;;;;5094089;28;20035;-71
2023/07/11 03:14:14;;;;;;;0.50;0.50;;;17.90;99.90;;;;;;5093832;28;20421;-71
2023/07/11 03:16:41;;;;;;;1.03;0.53;;;17.90;99.90;;;;;;5093689;28;20051;-71
2023/07/11 03:19:07;;;;;;;0.30;0.30;;;17.90;99.90;;;;;;5093648;28;20051;-71
2023/07/11 03:21:33;;;;;;;0.30;0.30;;;17.90;99.90;;;;;;5093655;28;20032;-71
2023/07/11 03:23:58;;;;;;;0.33;0.33;;;17.90;99.90;;;;;;5093697;28;20072;-72
2023/07/11 03:26:24;;;;;;;0.93;0.60;;;17.90;99.90;;;;;;5093314;28;20032;-72
2023/07/11 03:28:49;;;;;;;0.23;0.23;;;17.90;99.90;;;;;;5093387;28;20093;-72
2023/07/11 03:31:16;;;;;;;0.30;0.30;;;17.90;99.90;;;;;;5093663;28;20040;-72
2023/07/11 03:33:43;;;;;;;0.30;0.30;;;18.00;99.90;;;;;;5093716;28;20047;-72
2023/07/11 03:36:11;;;;;;;0.30;0.30;;;18.00;99.90;;;;;;5093669;28;20032;-72
2023/07/11 03:38:37;;;;;;;0.30;0.30;;;17.90;99.90;;;;;;5093537;28;20054;-72
2023/07/11 03:41:03;;;;;;;0.30;0.30;;;18.00;99.90;;;;;;5093290;28;20039;-72
2023/07/11 03:43:29;;;;;;;;;;;18.00;99.90;;;;;;5093944;28;20040;-71
2023/07/11 03:45:54;;;;;;;0.60;0.60;;;18.00;99.90;;;;;;5093310;28;19916;-71
2023/07/11 03:48:20;;;;;;;0.30;0.30;;;18.00;99.90;;;;;;5093177;28;20040;-73
2023/07/11 03:50:46;;;;;;;0.30;0.30;;;18.00;99.90;;;;;;5093470;28;20040;-74
2023/07/11 03:53:12;;;;;;;0.40;0.40;;;18.10;99.90;;;;;;5093951;28;20348;-72
2023/07/11 03:55:38;;;;;;;0.30;0.30;;;18.00;99.90;;;;;;5093766;28;20052;-71
2023/07/11 03:58:03;;;;;;;0.30;0.30;;;18.00;99.90;;;;;;5093307;28;20302;-70
2023/07/11 04:00:29;;;;;;;0.30;0.30;;;18.10;99.90;;;;;;5093304;28;20059;-71
2023/07/11 04:02:55;;;;;;;0.30;0.30;;;18.00;99.90;;;;;;5093517;28;20085;-70
2023/07/11 04:05:20;;;;;;;0.30;0.30;;;18.10;99.90;;;;;;5092842;28;20093;-72
2023/07/11 04:07:46;;;;;;;0.50;0.50;;;18.10;99.90;;;;;;5093357;28;20519;-72
2023/07/11 04:10:14;;;;;;;0.30;0.30;;;18.10;99.90;;;;;;5093255;28;20064;-70
2023/07/11 04:12:40;;;;;;;0.30;0.30;;;18.10;99.90;;;;;;5093339;28;20089;-70
2023/07/11 04:15:07;;;;;;;0.30;0.30;;;18.10;99.90;;;;;;5092895;28;20044;-70
2023/07/11 04:17:32;;;;;;;0.30;0.30;;;18.20;99.90;;;;;;5093409;28;20044;-72
2023/07/11 04:19:58;;;;;;;0.30;0.30;;;18.20;99.90;;;;;;5093228;28;20051;-71
2023/07/11 04:22:23;;;;;;;0.30;0.30;;;18.20;99.90;;;;;;5093184;28;20036;-73
2023/07/11 04:24:49;;;;;;;0.50;0.50;;;18.20;99.90;;;;;;5092962;28;20352;-72
2023/07/11 04:27:15;;;;;;;0.30;0.30;;;18.20;99.90;;;;;;5093145;28;20135;-72
2023/07/11 04:29:41;;;;;;;0.60;0.53;;;18.20;99.90;;;;;;5093104;28;20079;-70
2023/07/11 04:32:07;;;;;;;0.40;0.40;;;18.20;99.90;;;;;;5093061;28;20040;-71
2023/07/11 04:34:32;;;;;;;0.43;0.43;;;18.20;99.90;;;;;;5093023;28;20036;-72
2023/07/11 04:36:58;;;;;;;0.40;0.40;;;18.30;99.90;;;;;;5093801;28;20047;-72
2023/07/11 04:39:24;;;;;;;0.37;0.37;;;18.40;99.90;;;;;;5096775;28;20036;-71
2023/07/11 04:41:50;;;;;;;0.30;0.30;;;18.40;99.90;;;;;;5096820;28;20123;-71
2023/07/11 04:44:18;;;;;;;0.30;0.30;;;18.40;99.90;;;;;;5096528;28;20368;-70
2023/07/11 04:46:44;;;;;;;0.30;0.30;;;18.40;99.90;;;;;;5094938;28;20071;-70
2023/07/11 04:49:09;;;;;;;0.50;0.47;;;18.50;99.90;;;;;;5096442;28;20071;-70
2023/07/11 04:51:35;;;;;;;0.20;0.20;;;18.60;99.90;;;;;;5096065;28;20371;-70
2023/07/11 04:54:01;;;;;;;0.30;0.30;;;18.60;99.90;;;;;;5096450;28;20040;-68
2023/07/11 04:56:26;;;;;;;0.30;0.30;;;18.60;99.90;;;;;;5096451;28;20055;-74
2023/07/11 04:58:52;;;;;;;0.30;0.30;;;18.60;99.90;;;;;;5095847;28;20043;-70
2023/07/11 05:01:18;;;;;;;0.40;0.40;;;18.70;99.90;;;;;;5095822;28;20486;-72
2023/07/11 05:03:44;;;;;;;0.20;0.20;;;18.70;99.90;;;;;;5095980;28;20039;-70
2023/07/11 05:06:14;;;;;;;0.40;0.40;;;18.70;99.90;;;;;;5095911;28;20040;-71
2023/07/11 05:08:40;;;;;;;0.30;0.30;;;18.80;99.90;;;;;;5095933;28;20032;-72
2023/07/11 05:11:12;;;;;;;0.30;0.30;;;18.80;99.90;;;;;;5095524;28;20434;-72
2023/07/11 05:13:39;;;;;;;0.20;0.20;;;18.80;99.90;;;;;;5095833;28;20035;-71
2023/07/11 05:16:08;;;;;;;0.30;0.30;;;18.80;99.90;;;;;;5095654;28;20357;-70
2023/07/11 05:18:40;;;;;;;0.98;0.57;;;18.80;99.90;;;;;;5095946;28;20040;-71
2023/07/11 05:21:08;;;;;;;0.93;0.50;;;18.80;99.90;;;;;;5095451;28;20043;-74
2023/07/11 05:23:34;;;;;;;0.20;0.20;;;18.80;99.90;;;;;;5095748;28;20040;-69
2023/07/11 05:26:00;;;;;;;0.40;0.40;;;18.80;99.90;;;;;;5095339;28;20043;-72
2023/07/11 05:28:26;;;;;;;0.40;0.40;;;18.90;99.90;;;;;;5095374;28;20036;-73
2023/07/11 05:30:55;;;;;;;0.50;0.50;;;19.10;99.90;;;;;;5095325;28;20044;-72
2023/07/11 05:33:21;;;;;;;1.55;0.73;;;19.30;99.90;;;;;;5095258;28;20274;-71
2023/07/11 05:36:13;;;;;;;0.30;0.30;;;19.60;99.90;;;;;;5095579;28;20039;-71
2023/07/11 05:38:39;;;;;;;0.57;0.57;;;19.80;99.90;;;;;;5095139;28;20032;-69
2023/07/11 05:41:04;;;;;;;0.30;0.30;;;20.00;99.90;;;;;;5094188;28;20115;-71
2023/07/11 05:43:33;;;;;;;0.30;0.30;;;20.20;99.90;;;;;;5095078;28;20150;-70
2023/07/11 05:45:59;;;;;;;0.45;0.40;;;20.30;99.90;;;;;;5095234;28;20119;-71
2023/07/11 05:48:24;;;;;;;0.40;0.40;;;20.40;99.90;;;;;;5095001;28;20036;-72
2023/07/11 05:51:02;;;;;;;0.30;0.30;;;20.50;99.90;;;;;;5094937;28;20375;-71
2023/07/11 05:53:29;;;;;;;0.30;0.30;;;20.50;99.90;;;;;;5094927;28;20491;-72
2023/07/11 05:55:57;;;;;;;0.60;0.50;;;20.50;99.90;;;;;;5095358;28;20032;-74
2023/07/11 05:58:23;;;;;;;0.45;0.45;;;20.50;99.90;;;;;;5094740;28;20388;-70
2023/07/11 06:00:51;;;;;;;0.63;0.57;;;20.50;99.90;;;;;;5094883;28;20052;-69
2023/07/11 06:03:17;;;;;;;0.20;0.20;;;20.50;99.90;;;;;;5094648;28;20046;-70
2023/07/11 06:05:42;;;;;;;0.23;0.23;;;20.60;99.90;;;;;;5094832;28;20048;-69
2023/07/11 06:08:08;;;;;;;0.30;0.30;;;20.60;99.90;;;;;;5094569;28;20076;-71
2023/07/11 06:10:34;;;;;;;0.30;0.30;;;20.60;99.90;;;;;;5094300;28;20043;-74
2023/07/11 06:12:59;;;;;;;0.30;0.30;;;20.60;99.90;;;;;;5094597;28;20458;-73
2023/07/11 06:15:25;;;;;;;0.30;0.30;;;20.70;99.90;;;;;;5094672;28;20050;-73
2023/07/11 06:17:51;;;;;;;0.50;0.50;;;20.90;99.90;;;;;;5093156;28;20055;-73
2023/07/11 06:20:25;;;;;;;0.40;0.40;;;21.10;99.90;;;;;;5093292;28;20491;-76
2023/07/11 06:22:51;;;;;;;0.20;0.20;;;21.30;99.90;;;;;;5094245;28;20036;-70
2023/07/11 06:25:16;;;;;;;0.30;0.30;;;21.60;99.90;;;;;;5094334;28;20044;-72
2023/07/11 06:27:42;;;;;;;0.57;0.40;;;21.80;99.90;;;;;;5093372;28;20352;-72
2023/07/11 06:30:08;;;;;;;0.20;0.20;;;22.00;99.90;;;;;;5094778;28;20032;-73
2023/07/11 06:32:34;;;;;;;0.30;0.30;;;22.00;99.90;;;;;;5092711;28;20048;-78
2023/07/11 06:35:03;;;;;;;0.30;0.30;;;22.00;99.90;;;;;;5094608;28;20036;-71
2023/07/11 06:37:28;;;;;;;0.30;0.30;;;22.10;99.90;;;;;;5094432;28;20630;-72
2023/07/11 06:39:54;;;;;;;0.30;0.30;;;22.10;99.90;;;;;;5094458;28;20138;-72
2023/07/11 06:42:19;;;;;;;0.30;0.30;;;22.10;99.90;;;;;;5094092;28;20345;-71
2023/07/11 06:44:45;;;;;;;0.50;0.50;;;22.20;99.90;;;;;;5094389;28;20039;-71
2023/07/11 06:47:11;;;;;;;0.30;0.30;;;22.10;99.90;;;;;;5094371;28;20071;-71
2023/07/11 06:49:36;;;;;;;0.30;0.30;;;22.20;99.90;;;;;;5094245;28;20048;-71
2023/07/11 06:52:02;;;;;;;0.40;0.40;;;22.10;99.90;;;;;;5094235;28;20055;-71
2023/07/11 06:54:29;;;;;;;0.30;0.30;;;22.10;99.90;;;;;;5094097;28;20043;-71
2023/07/11 06:56:59;;;;;;;0.38;0.30;;;22.10;99.90;;;;;;5094148;28;20040;-71
2023/07/11 06:59:25;;;;;;;0.25;0.25;;;22.10;99.90;;;;;;5093434;28;20032;-71
2023/07/11 07:01:51;;;;;;;0.30;0.30;;;22.10;99.90;;;;;;5093964;28;20357;-71
2023/07/11 07:04:16;;;;;;;0.20;0.20;;;22.20;99.90;;;;;;5093985;28;20039;-70
2023/07/11 07:06:43;;;;;;;0.40;0.40;;;22.30;99.90;;;;;;5093980;28;20043;-71
2023/07/11 07:09:09;;;;;;;;;;;22.40;99.90;;;;;;5094461;28;20119;-71
2023/07/11 07:11:35;;;;;;;0.20;0.20;;;22.50;99.90;;;;;;5093637;28;19959;-71
2023/07/11 07:14:02;;;;;;;0.45;0.40;;;22.70;99.90;;;;;;5093943;28;20043;-72
2023/07/11 07:16:30;;;;;;;0.40;0.40;;;22.90;99.90;;;;;;5093655;28;20056;-72
2023/07/11 07:18:56;;;;;;;0.47;0.38;;;23.10;99.90;;;;;;5093702;28;20055;-71
2023/07/11 07:21:23;;;;;;;0.45;0.40;;;23.30;99.90;;;;;;5093643;28;20056;-72
2023/07/11 07:23:48;;;;;;;0.30;0.30;;;23.50;99.90;;;;;;5093906;28;20091;-72
2023/07/11 07:26:14;;;;;;;0.40;0.40;;;23.70;99.90;;;;;;5093739;28;20044;-72
2023/07/11 07:28:40;;;;;;;0.30;0.30;;;23.90;99.90;;;;;;5093894;28;20044;-72
2023/07/11 07:31:06;;;;;;;0.30;0.30;;;24.10;99.90;;;;;;5093765;28;20040;-73
2023/07/11 07:33:33;;;;;;;0.30;0.30;;;24.20;99.90;;;;;;5093764;28;20036;-74
2023/07/11 07:36:07;;;;;;;0.45;0.40;;;24.20;99.90;;;;;;5093675;28;20040;-74
2023/07/11 07:38:34;;;;;;;0.25;0.25;;;24.30;99.90;;;;;;5093849;28;20075;-73
2023/07/11 07:41:02;;;;;;;0.47;0.47;;;24.40;99.90;;;;;;5075973;28;20044;-73
2023/07/11 07:43:30;;;;;;;0.47;0.30;;;24.40;99.90;;;;;;5094126;28;20044;-74
2023/07/11 07:45:57;;;;;;;0.20;0.20;;;24.40;99.90;;;;;;5093689;28;20057;-76
2023/07/11 07:48:23;;;;;;;0.25;0.25;;;24.50;99.90;;;;;;5093874;28;20470;-71
2023/07/11 07:50:49;;;;;;;0.30;0.30;;;24.50;99.90;;;;;;5093413;28;20089;-72
2023/07/11 07:53:15;;;;;;;0.20;0.20;;;24.70;99.90;;;;;;5093765;28;20122;-72
2023/07/11 07:55:42;;;;;;;0.40;0.40;;;24.90;99.90;;;;;;5092602;28;20047;-73
2023/07/11 07:58:07;;;;;;;0.30;0.30;;;25.10;99.90;;;;;;5093567;28;20040;-74
2023/07/11 08:00:33;;;;;;;0.30;0.30;;;25.30;99.90;;;;;;5093453;28;20503;-72
2023/07/11 08:02:59;;;;;;;0.30;0.30;;;25.50;99.90;;;;;;5091826;28;20039;-72
2023/07/11 08:05:25;;;;;;;0.20;0.20;;;25.70;99.90;;;;;;5093167;28;20480;-72
2023/07/11 08:07:51;;;;;;;0.20;0.20;;;25.80;99.90;;;;;;5093334;28;20036;-74
2023/07/11 08:10:17;;;;;;;0.30;0.30;;;26.00;99.90;;;;;;5092833;28;20040;-74
2023/07/11 08:12:43;;;;;;;1.55;0.35;;;26.10;99.90;;;;;;5096710;28;20042;-75
2023/07/11 08:15:10;;;;;;;;;;;26.20;99.90;;;;;;5097681;28;20093;-73
2023/07/11 08:17:36;;;;;;;0.20;0.20;;;26.40;99.90;;;;;;5097402;28;19916;-73
2023/07/11 08:20:02;;;;;;;0.67;0.40;;;26.50;99.90;;;;;;5096651;28;20102;-73
2023/07/11 08:22:27;;;;;;;0.20;0.20;;;26.50;99.90;;;;;;5097753;28;20180;-73
2023/07/11 08:24:53;;;;;;;0.40;0.40;;;26.50;99.90;;;;;;5097103;28;20036;-74
2023/07/11 08:27:18;;;;;;;0.20;0.20;;;26.60;99.90;;;;;;5097093;28;20468;-72
2023/07/11 08:29:45;;;;;;;0.20;0.20;;;26.80;99.90;;;;;;5096679;28;20051;-73
2023/07/11 08:32:14;;;;;;;0.43;0.43;;;26.90;99.90;;;;;;5096957;28;20039;-72
2023/07/11 08:34:41;;;;;;;0.30;0.30;;;27.00;99.90;;;;;;5095859;28;20199;-72
2023/07/11 08:37:08;;;;;;;0.22;0.22;;;27.10;99.90;;;;;;5096831;28;20051;-72
2023/07/11 08:39:35;;;;;;;0.20;0.20;;;27.10;99.90;;;;;;5096823;28;20040;-72
2023/07/11 08:42:06;;;;;;;0.20;0.20;;;27.10;99.90;;;;;;5096829;28;20425;-73
2023/07/11 08:44:51;;;;;;;0.20;0.20;;;27.10;99.90;;;;;;5096721;28;20119;-75
2023/07/11 08:47:19;;;;;;;0.30;0.20;;;27.20;99.90;;;;;;5095583;28;20432;-72
2023/07/11 08:50:08;;;;;;;0.20;0.20;;;27.30;99.90;;;;;;5097177;28;20081;-73
2023/07/11 08:52:35;;;;;;;0.30;0.30;;;27.40;99.90;;;;;;5096980;28;20040;-76
2023/07/11 08:55:15;;;;;;;0.20;0.20;;;27.60;99.90;;;;;;5096804;28;20040;-75
2023/07/11 08:57:47;;;;;;;0.30;0.30;;;27.80;99.90;;;;;;5096720;28;20383;-74
2023/07/11 09:00:16;;;;;;;0.20;0.20;;;28.00;99.90;;;;;;5096878;28;20075;-75
2023/07/11 09:03:02;;;;;;;0.40;0.40;;;28.00;99.90;;;;;;5094957;28;20040;-75
2023/07/11 09:05:40;;;;;;;0.20;0.20;;;28.10;99.90;;;;;;5096217;28;20070;-74
2023/07/11 09:08:12;;;;;;;0.25;0.25;;;28.20;99.90;;;;;;5096342;28;20086;-76
2023/07/11 09:10:48;;;;;;;0.20;0.20;;;28.20;99.90;;;;;;5096408;28;20460;-72
2023/07/11 09:13:35;;;;;;;0.30;0.30;;;28.30;99.90;;;;;;5095085;28;20048;-75
2023/07/11 09:16:29;;;;;;;0.35;0.35;;;28.40;99.90;;;;;;5096155;28;20036;-77
2023/07/11 09:19:14;;;;;;;0.20;0.20;;;28.50;99.90;;;;;;5096686;28;20376;-75
2023/07/11 09:21:51;;;;;;;0.30;0.30;;;28.50;99.90;;;;;;5096267;28;20044;-74
2023/07/11 09:24:32;;;;;;;0.20;0.20;;;28.60;99.90;;;;;;5095018;28;20484;-74
2023/07/11 09:27:38;;;;;;;0.32;0.30;;;28.70;99.90;;;;;;5095848;28;20059;-75
2023/07/11 09:30:33;;;;;;;0.20;0.20;;;28.90;99.90;;;;;;5096020;28;20361;-76
2023/07/11 09:33:22;;;;;;;0.20;0.20;;;29.00;99.90;;;;;;5095762;28;20131;-76
2023/07/11 09:35:50;;;;;;;0.50;0.50;;;29.00;99.90;;;;;;5095598;28;20467;-74
2023/07/11 09:38:32;;;;;;;0.35;0.35;;;29.00;99.60;;;;;;5095399;28;20047;-75
2023/07/11 09:41:20;;;;;;;0.15;0.15;;;29.10;99.90;;;;;;5095763;28;20422;-75
2023/07/11 09:43:47;;;;;;;0.20;0.20;;;29.20;99.90;;;;;;5095582;28;20040;-77
2023/07/11 09:46:21;;;;;;;0.20;0.20;;;29.30;99.90;;;;;;5095891;28;20044;-76
2023/07/11 09:48:49;;;;;;;0.20;0.20;;;29.50;99.40;;;;;;5095568;28;20036;-73
2023/07/11 09:51:26;;;;;;;0.20;0.20;;;29.50;99.20;;;;;;5095295;28;20036;-75
2023/07/11 09:53:55;;;;;;;;;;;29.60;99.90;;;;;;5094358;28;20100;-75
2023/07/11 09:56:23;;;;;;;0.20;0.20;;;29.80;98.70;;;;;;5095289;28;19963;-73
2023/07/11 09:58:52;;;;;;;0.20;0.20;;;29.80;98.40;;;;;;5095179;28;20086;-72
2023/07/11 10:01:24;;;;;;;0.25;0.25;;;29.70;97.90;;;;;;5095107;28;20047;-72
2023/07/11 10:03:53;;;;;;;0.30;0.30;;;29.80;98.30;;;;;;5095085;28;20380;-75
2023/07/11 10:06:39;;;;;;;0.20;0.20;;;29.70;98.20;;;;;;5095014;28;20051;-74
2023/07/11 10:09:22;;;;;;;0.30;0.30;;;29.60;97.90;;;;;;5095693;28;20071;-74
2023/07/11 10:12:21;;;;;;;0.20;0.20;;;29.50;98.70;;;;;;5095335;28;20089;-74
2023/07/11 10:14:59;;;;;;;0.30;0.30;;;29.50;98.10;;;;;;5090082;28;20095;-72
2023/07/11 10:17:26;;;;;;;0.20;0.20;;;29.50;97.20;;;;;;5094554;28;20091;-72
2023/07/11 10:19:57;;;;;;;0.20;0.20;;;29.60;96.80;;;;;;5094704;28;20047;-74
2023/07/11 10:22:27;;;;;;;0.65;0.38;;;29.60;97.00;;;;;;5094566;28;20143;-72
2023/07/11 10:25:15;;;;;;;0.32;0.32;;;29.60;96.60;;;;;;5093665;28;20035;-72
2023/07/11 10:27:42;;;;;;;0.47;0.35;;;29.60;95.80;;;;;;5094724;28;20052;-71
2023/07/11 10:30:19;;;;;;;0.20;0.20;;;29.60;96.80;;;;;;5094824;28;20127;-72
2023/07/11 10:33:12;;;;;;;0.20;0.20;;;29.60;96.60;;;;;;5094977;28;20039;-73
2023/07/11 10:35:39;;;;;;;0.35;0.35;;;29.60;96.90;;;;;;5093514;28;20036;-73
2023/07/11 10:38:30;;;;;;;0.20;0.20;;;29.70;97.00;;;;;;5093194;28;20101;-73
2023/07/11 10:41:00;;;;;;;0.32;0.32;;;29.70;96.40;;;;;;5094506;28;20510;-72
2023/07/11 10:43:30;;;;;;;0.20;0.20;;;29.70;96.70;;;;;;5076517;28;20040;-75
2023/07/11 10:46:04;;;;;;;0.20;0.20;;;29.70;96.60;;;;;;5094655;28;20051;-73
2023/07/11 10:48:33;;;;;;;0.57;0.57;;;29.70;96.20;;;;;;5094577;28;20032;-74
2023/07/11 10:51:06;;;;;;;0.20;0.20;;;29.60;96.40;;;;;;5094164;28;20052;-74
2023/07/11 10:53:45;;;;;;;0.20;0.20;;;29.50;96.70;;;;;;5094372;28;20066;-74
2023/07/11 10:56:24;;;;;;;0.20;0.20;;;29.60;96.40;;;;;;5094313;28;20082;-75
2023/07/11 10:58:51;;;;;;;0.30;0.30;;;29.70;97.20;;;;;;5094123;28;20336;-76
2023/07/11 11:01:29;;;;;;;0.25;0.25;;;29.80;96.20;;;;;;5093677;28;20040;-75
2023/07/11 11:04:27;;;;;;;0.25;0.25;;;29.90;96.50;;;;;;5093138;28;20399;-73
2023/07/11 11:07:06;;;;;;;0.20;0.20;;;30.00;96.10;;;;;;5094018;28;20043;-75
2023/07/11 11:09:43;;;;;;;0.20;0.20;;;30.20;97.00;;;;;;5094157;28;20059;-73
2023/07/11 11:12:34;;;;;;;;;;;30.20;96.80;;;;;;5094414;28;20047;-74
2023/07/11 11:15:29;;;;;;;0.20;0.20;;;30.40;96.20;;;;;;5094200;28;19970;-75
2023/07/11 11:18:04;;;;;;;0.20;0.20;;;30.60;96.50;;;;;;5067502;28;20361;-74
2023/07/11 11:20:45;;;;;;;0.20;0.20;;;30.70;95.90;;;;;;5093767;28;20129;-75
2023/07/11 11:23:47;;;;;;;0.52;0.52;;;30.70;95.70;;;;;;5094045;28;20043;-74
2023/07/11 11:26:16;;;;;;;0.32;0.32;;;30.60;95.70;;;;;;5093809;28;20040;-73
2023/07/11 11:29:00;;;;;;;0.65;0.60;;;30.60;96.20;;;;;;5093761;28;20040;-76
2023/07/11 11:31:30;;;;;;;0.20;0.20;;;30.60;95.50;;;;;;5093905;28;20349;-73
2023/07/11 11:34:04;;;;;;;0.20;0.20;;;30.50;96.00;;;;;;5093693;28;20047;-74
2023/07/11 11:36:46;;;;;;;0.50;0.50;;;30.50;95.80;;;;;;5093492;28;20040;-73
2023/07/11 11:39:15;;;;;;;0.30;0.30;;;30.50;96.20;;;;;;5093648;28;20032;-74
2023/07/11 11:41:51;;;;;;;0.20;0.20;;;30.50;96.30;;;;;;5093730;28;20047;-75
2023/07/11 11:44:21;;;;;;;0.40;0.40;;;30.30;96.50;;;;;;5092052;28;20085;-74
2023/07/11 11:46:48;;;;;;;0.20;0.20;;;30.20;96.30;;;;;;5095053;28;20067;-73
2023/07/11 11:49:17;;;;;;;0.10;0.10;;;30.20;96.40;;;;;;5097796;28;20047;-75
2023/07/11 11:51:45;;;;;;;0.10;0.10;;;30.20;96.30;;;;;;5098016;28;20135;-75
2023/07/11 11:54:20;;;;;;;0.20;0.20;;;30.30;96.40;;;;;;5097661;28;20122;-74
2023/07/11 11:56:58;;;;;;;0.20;0.20;;;30.50;96.70;;;;;;5097643;28;20037;-73
2023/07/11 11:59:26;;;;;;;0.20;0.20;;;30.60;96.40;;;;;;5097493;28;20048;-73
2023/07/11 12:01:55;;;;;;;0.13;0.13;;;30.70;96.20;;;;;;5097536;28;20036;-73
2023/07/11 12:04:57;;;;;;;0.10;0.10;;;30.80;96.70;;;;;;5097451;28;20426;-74
2023/07/11 12:07:29;;;;;;;0.20;0.20;;;30.90;96.20;;;;;;5078055;28;20063;-74
2023/07/11 12:09:56;;;;;;;0.38;0.38;;;30.70;95.80;;;;;;5097254;28;20063;-74
2023/07/11 12:12:45;;;;;;;0.40;0.40;;;30.60;96.40;;;;;;5097886;28;20482;-73
2023/07/11 12:15:11;;;;;;;0.28;0.28;;;30.80;95.90;;;;;;5096842;28;20043;-74
2023/07/11 12:17:38;;;;;;;0.20;0.20;;;30.90;96.00;;;;;;5096887;28;20044;-75
2023/07/11 12:20:12;;;;;;;0.20;0.20;;;30.90;95.40;;;;;;5097121;28;20046;-74
2023/07/11 12:22:37;;;;;;;0.20;0.20;;;31.10;96.20;;;;;;5097695;28;20379;-72
2023/07/11 12:25:06;;;;;;;0.38;0.38;;;31.10;95.40;;;;;;5097128;28;20046;-76
2023/07/11 12:27:35;;;;;;;0.25;0.25;;;31.20;95.80;;;;;;5096958;28;20040;-73
2023/07/11 12:30:03;;;;;;;0.28;0.28;;;31.40;95.70;;;;;;5095764;28;20093;-72
2023/07/11 12:32:31;;;;;;;0.30;0.25;;;31.40;95.60;;;;;;5094978;28;20047;-73
2023/07/11 12:35:21;;;;;;;0.20;0.20;;;31.40;95.50;;;;;;5095909;28;20484;-72
2023/07/11 12:37:59;;;;;;;2.53;0.22;;;31.40;95.70;;;;;;5096900;28;20043;-72
2023/07/11 12:40:41;;;;;;;0.20;0.20;;;31.40;94.70;;;;;;5095072;28;20040;-72
2023/07/11 12:43:18;;;;;;;0.20;0.20;;;31.30;94.90;;;;;;5096639;28;20040;-74
2023/07/11 12:45:50;;;;;;;0.30;0.30;;;31.20;95.00;;;;;;5097459;28;20052;-74
2023/07/11 12:48:31;;;;;;;0.20;0.20;;;31.10;94.10;;;;;;5097065;28;20376;-73
2023/07/11 12:51:02;;;;;;;0.25;0.25;;;31.00;94.90;;;;;;5095498;28;20123;-76
2023/07/11 12:53:30;;;;;;;0.20;0.20;;;31.00;93.60;;;;;;5096479;28;20039;-72
2023/07/11 12:55:56;;;;;;;0.20;0.20;;;31.00;93.90;;;;;;5096457;28;20050;-75
2023/07/11 12:58:27;;;;;;;0.32;0.32;;;31.00;93.60;;;;;;5095304;28;20391;-72
2023/07/11 13:00:55;;;;;;;0.30;0.20;;;31.00;93.70;;;;;;5096727;28;20105;-72